Latest Weather Observations for Snowtown

IDS60801

Issued at 10:31 am CST Thursday 25 May 2017 (issued every 30 minutes, with the page automatically refreshed every 10 minutes)

About weather observations | Map of weather stations | Latest weather observations for SA | Other Formats
Station Details ID: 021133 Name: RAYVILLE PARK Lat: -33.77 Lon: 138.22 Height: 109.1 m
Data from the previous 72 hours. | See also: Recent months at Snowtown
Date/Time
CST
Temp
°C
App
Temp
°C
Dew
Point
°C
Rel
Hum
%
Delta-T
°C
Wind Press
QNH
hPa
Press
MSL
hPa
Rain since
9am
mm
Dir  Spd
km/h
Gust
km/h
Spd
kts
Gust
kts
25/10:30am 17.9 15.3 10.8 63 3.8 NNW 15 20 8 11 1023.3 1023.2 0.0
25/10:00am 16.6 14.2 11.3 71 2.9 N 15 19 8 10 1023.2 1023.1 0.0
25/09:30am 15.4 13.1 11.6 78 2.0 N 15 17 8 9 1023.3 1023.2 0.0
25/09:00am 13.0 10.0 10.5 85 1.3 N 17 20 9 11 1023.3 1023.2 0.0
25/08:30am 12.1 9.8 10.3 89 0.9 N 13 15 7 8 1023.1 1023.0 0.0
25/08:00am 10.7 7.8 9.6 93 0.6 N 15 17 8 9 1022.8 1022.7 0.0
25/07:30am 9.3 5.3 8.1 92 0.6 N 19 22 10 12 1022.3 1022.3 0.0
25/07:00am 8.6 4.2 7.5 93 0.5 N 20 20 11 11 1022.1 1022.1 0.0
25/06:30am 8.8 4.5 7.7 93 0.5 N 20 22 11 12 1022.0 1022.0 0.0
25/06:00am 9.1 4.8 7.7 91 0.7 NNE 20 22 11 12 1021.9 1021.9 0.0
25/05:30am 8.9 5.1 7.5 91 0.7 N 17 19 9 10 1021.7 1021.7 0.0
25/05:00am 9.6 5.5 7.7 88 0.9 NNE 19 20 10 11 1021.7 1021.7 0.0
25/04:30am 10.8 6.8 8.4 85 1.2 NNE 19 20 10 11 1021.7 1021.7 0.0
25/04:00am 12.0 8.2 9.0 82 1.5 N 19 22 10 12 1021.7 1021.7 0.0
25/03:30am 11.4 8.0 9.1 86 1.1 N 17 20 9 11 1021.7 1021.7 0.0
25/03:00am 11.0 8.0 9.1 88 0.9 N 15 17 8 9 1021.6 1021.6 0.0
25/02:30am 11.1 7.7 9.0 87 1.0 N 17 19 9 10 1021.5 1021.5 0.0
25/02:00am 11.4 9.2 9.3 87 1.1 N 11 15 6 8 1021.8 1021.8 0.0
25/01:30am 10.9 8.6 9.0 88 0.9 N 11 13 6 7 1021.9 1021.9 0.0
25/01:00am 10.9 7.8 9.0 88 0.9 N 15 17 8 9 1021.9 1021.9 0.0
25/12:30am 10.5 7.8 8.9 90 0.8 N 13 17 7 9 1022.1 1022.1 0.0
25/12:00am 9.6 7.5 8.2 91 0.7 W 9 13 5 7 1022.2 1022.2 0.0
 
Date/Time
CST
Temp
°C
App
Temp
°C
Dew
Point
°C
Rel
Hum
%
Delta-T
°C
Wind Press
QNH
hPa
Press
MSL
hPa
Rain since
9am
mm
Dir  Spd
km/h
Gust
km/h
Spd
kts
Gust
kts
24/11:30pm 9.5 7.3 7.8 89 0.8 W 9 13 5 7 1022.5 1022.4 0.0
24/11:00pm 9.7 7.9 8.0 89 0.8 W 7 11 4 6 1022.5 1022.4 0.0
24/10:30pm 9.5 7.2 7.6 88 0.9 W 9 11 5 6 1022.5 1022.4 0.0
24/10:00pm 10.4 8.7 8.3 87 1.0 W 7 9 4 5 1022.6 1022.5 0.0
24/09:30pm 10.3 9.8 7.7 84 1.3 CALM 0 7 0 4 1022.6 1022.5 0.0
24/09:00pm 10.9 8.4 8.3 84 1.3 W 11 13 6 7 1022.6 1022.5 0.0
24/08:30pm 9.5 7.1 6.9 84 1.2 W 9 11 5 6 1022.5 1022.4 0.0
24/08:00pm 10.0 8.3 7.4 84 1.2 W 6 7 3 4 1022.5 1022.4 0.0
24/07:30pm 10.7 9.4 7.6 81 1.5 W 4 7 2 4 1022.3 1022.3 0.0
24/07:00pm 11.2 9.6 7.9 80 1.6 W 6 7 3 4 1021.9 1021.9 0.0
24/06:30pm 11.4 10.9 7.9 79 1.7 CALM 0 6 0 3 1021.8 1021.8 0.0
24/06:00pm 12.4 10.2 7.9 74 2.2 W 9 11 5 6 1021.6 1021.6 0.0
24/05:30pm 13.9 11.8 8.1 68 2.9 W 9 11 5 6 1021.7 1021.7 0.0
24/05:00pm 16.2 13.7 8.4 60 4.0 W 11 13 6 7 1021.7 1021.7 0.0
24/04:30pm 17.8 15.1 8.9 56 4.6 WSW 13 19 7 10 1021.6 1021.6 0.0
24/04:00pm 18.0 14.6 9.1 56 4.7 SW 17 20 9 11 1021.4 1021.4 0.0
24/03:30pm 18.5 13.7 8.7 53 5.1 WSW 24 32 13 17 1021.3 1021.3 0.0
24/03:00pm 18.9 14.1 8.8 52 5.3 WSW 24 35 13 19 1021.2 1021.2 0.0
24/02:30pm 18.8 14.5 9.3 54 5.0 WSW 22 32 12 17 1021.0 1021.0 0.0
24/02:00pm 19.4 14.9 9.9 54 5.1 WSW 24 35 13 19 1021.0 1021.0 0.0
24/01:30pm 19.7 15.1 9.6 52 5.4 W 24 32 13 17 1021.0 1021.0 0.0
24/01:00pm 19.4 14.6 9.0 51 5.5 W 24 35 13 19 1021.1 1021.1 0.0
24/12:30pm 18.5 14.5 10.3 59 4.4 WSW 22 32 12 17 1021.5 1021.5 0.0
24/12:00pm 17.9 13.6 10.8 63 3.8 WSW 24 32 13 17 1021.8 1021.8 0.0
24/11:30am 18.0 13.8 11.1 64 3.7 W 24 33 13 18 1022.1 1022.1 0.0
24/11:00am 17.8 14.2 12.0 69 3.2 W 22 30 12 16 1022.5 1022.4 0.0
24/10:30am 17.3 14.1 12.0 71 2.9 WNW 20 26 11 14 1022.7 1022.6 0.0
24/10:00am 16.2 13.3 12.9 81 1.8 NW 20 28 11 15 1022.8 1022.7 0.0
24/09:30am 15.7 12.8 13.0 84 1.5 NW 20 24 11 13 1022.7 1022.6 0.0
24/09:00am 15.1 12.5 13.1 88 1.1 NW 19 22 10 12 1022.5 1022.4 0.0
24/08:30am 15.0 12.8 13.2 89 1.0 NW 17 22 9 12 1022.2 1022.2 0.0
24/08:00am 14.0 12.4 12.7 92 0.7 WNW 13 15 7 8 1022.0 1022.0 0.0
24/07:30am 13.2 12.6 12.3 94 0.5 NW 7 11 4 6 1021.7 1021.7 0.0
24/07:00am 12.5 11.5 11.1 91 0.7 NNW 7 9 4 5 1021.3 1021.3 0.0
24/06:30am 13.9 12.4 11.9 88 1.1 NW 11 17 6 9 1021.0 1021.0 0.0
24/06:00am 14.0 11.4 12.0 88 1.1 WNW 17 20 9 11 1020.6 1020.6 0.0
24/05:30am 14.2 10.3 12.2 88 1.1 W 24 32 13 17 1020.2 1020.2 0.0
24/05:00am 14.0 11.0 12.4 90 0.9 WNW 20 30 11 16 1019.8 1019.8 0.0
24/04:30am 13.8 10.6 12.0 89 1.0 WNW 20 28 11 15 1019.6 1019.6 0.0
24/04:00am 13.7 10.5 11.9 89 1.0 WNW 20 28 11 15 1019.4 1019.4 0.0
24/03:30am 13.3 10.1 11.4 88 1.0 WNW 19 24 10 13 1019.3 1019.3 0.0
24/03:00am 13.6 10.5 11.7 88 1.0 WNW 19 24 10 13 1019.3 1019.3 0.0
24/02:30am 13.5 10.2 11.6 88 1.0 WNW 20 28 11 15 1019.2 1019.2 0.0
24/02:00am 13.8 10.0 11.1 84 1.4 WNW 22 32 12 17 1019.1 1019.1 0.0
24/01:30am 13.9 10.1 11.2 84 1.4 NW 22 30 12 16 1019.0 1019.0 0.0
24/01:00am 13.8 9.7 11.3 85 1.3 NW 24 30 13 16 1019.1 1019.1 0.0
24/12:30am 13.5 9.2 10.9 84 1.4 NW 24 30 13 16 1019.3 1019.3 0.0
24/12:00am 12.9 9.3 10.4 85 1.3 NW 20 26 11 14 1019.4 1019.4 0.0
 
Date/Time
CST
Temp
°C
App
Temp
°C
Dew
Point
°C
Rel
Hum
%
Delta-T
°C
Wind Press
QNH
hPa
Press
MSL
hPa
Rain since
9am
mm
Dir  Spd
km/h
Gust
km/h
Spd
kts
Gust
kts
23/11:30pm 13.1 9.7 10.5 84 1.4 NW 19 24 10 13 1019.3 1019.3 0.0
23/11:00pm 13.1 10.1 10.5 84 1.4 NW 17 24 9 13 1019.3 1019.3 0.0
23/10:30pm 13.8 10.4 10.4 80 1.8 NW 19 24 10 13 1019.3 1019.3 0.0
23/10:00pm 14.2 10.6 10.4 78 2.0 WNW 20 30 11 16 1019.4 1019.4 0.0
23/09:30pm 14.2 10.2 10.4 78 2.0 WNW 22 30 12 16 1019.2 1019.2 0.0
23/09:00pm 14.2 10.5 10.0 76 2.2 WNW 20 26 11 14 1019.0 1019.0 0.0
23/08:30pm 14.3 10.7 9.7 74 2.4 WNW 19 30 10 16 1019.0 1019.0 0.0
23/08:00pm 14.4 10.2 9.8 74 2.4 W 22 32 12 17 1018.9 1018.9 0.0
23/07:30pm 14.5 10.7 9.9 74 2.4 W 20 28 11 15 1018.6 1018.6 0.0
23/07:00pm 15.3 12.1 10.1 71 2.7 W 17 24 9 13 1018.3 1018.3 0.0
23/06:30pm 15.8 12.4 9.2 65 3.4 WNW 17 24 9 13 1017.8 1017.8 0.0
23/06:00pm 14.6 10.9 7.9 64 3.3 NW 17 22 9 12 1017.5 1017.5 0.0
23/05:30pm 14.9 12.3 7.9 63 3.5 NNW 11 13 6 7 1017.2 1017.2 0.0
23/05:00pm 15.9 12.9 7.9 59 4.0 NNW 13 17 7 9 1017.1 1017.1 0.0
23/04:30pm 17.3 12.9 7.4 52 5.0 NNW 20 26 11 14 1016.8 1016.8 0.0
23/04:00pm 17.9 13.2 7.9 52 5.1 NW 22 32 12 17 1016.9 1016.9 0.0
23/03:30pm 18.1 13.7 7.5 50 5.4 NW 20 30 11 16 1016.7 1016.7 0.0
23/03:00pm 18.4 14.0 7.2 48 5.7 NW 20 32 11 17 1016.6 1016.6 0.0
23/02:30pm 18.6 13.8 7.4 48 5.7 NW 22 33 12 18 1016.6 1016.6 0.0
23/02:00pm 17.8 13.6 7.5 51 5.2 WNW 19 28 10 15 1016.7 1016.7 0.0
23/01:30pm 18.0 12.8 7.4 50 5.4 WNW 24 32 13 17 1017.0 1017.0 0.0
23/01:00pm 17.7 12.6 7.7 52 5.1 NW 24 32 13 17 1016.9 1016.9 0.0
23/12:30pm 17.5 12.4 7.5 52 5.1 NW 24 35 13 19 1017.2 1017.2 0.0
23/12:00pm 17.5 13.4 10.1 62 3.9 NNW 22 28 12 15 1017.6 1017.6 0.0
23/11:30am 17.7 14.8 11.0 65 3.6 NNW 17 24 9 13 1017.8 1017.8 0.0
23/11:00am 16.8 13.6 11.3 70 3.0 NW 19 24 10 13 1018.3 1018.3 0.0
23/10:30am 16.5 13.9 12.1 75 2.4 NW 17 22 9 12 1018.8 1018.8 0.0
23/10:00am 15.9 13.2 11.7 76 2.3 NNW 17 22 9 12 1018.9 1018.9 0.0
23/09:30am 15.3 12.4 12.2 82 1.7 NW 19 24 10 13 1018.9 1018.9 0.0
23/09:00am 14.3 12.9 13.5 95 0.4 N 13 19 7 10 1019.0 1019.0 2.2
23/08:30am 12.9 10.5 12.7 99 0.1 N 17 19 9 10 1018.8 1018.8 2.2
23/08:00am 11.3 9.2 11.1 99 0.1 N 13 13 7 7 1018.4 1018.4 2.2
23/07:30am 9.3 6.7 9.2 99 0.0 WNW 13 15 7 8 1018.1 1018.1 2.2
23/07:00am 7.5 5.1 7.2 98 0.1 WNW 9 9 5 5 1017.8 1017.8 2.2
23/06:30am 7.3 4.5 7.0 98 0.1 WNW 11 13 6 7 1017.7 1017.7 2.2
23/06:00am 7.7 5.8 7.4 98 0.1 WNW 7 11 4 6 1017.7 1017.7 2.2
23/05:30am 7.5 5.1 7.2 98 0.1 WNW 9 13 5 7 1017.9 1017.9 2.2
23/05:00am 8.5 6.0 8.2 98 0.1 WNW 11 13 6 7 1017.7 1017.7 2.2
23/04:30am 8.4 5.9 8.0 97 0.2 WNW 11 13 6 7 1017.2 1017.2 2.2
23/04:00am 8.5 7.6 7.7 95 0.4 WNW 2 7 1 4 1017.2 1017.2 2.0
23/03:30am 9.3 7.6 8.5 95 0.4 WNW 7 11 4 6 1017.2 1017.2 2.0
23/03:00am 10.4 8.7 8.5 88 0.9 W 7 11 4 6 1017.2 1017.2 2.0
23/02:30am 12.0 11.1 10.6 91 0.7 W 6 11 3 6 1017.0 1017.0 2.0
23/02:00am 10.8 9.4 9.4 91 0.7 WNW 7 13 4 7 1017.2 1017.2 2.0
23/01:30am 12.2 11.3 11.4 95 0.4 WNW 7 11 4 6 1017.3 1017.3 2.0
23/01:00am 12.6 11.3 11.3 92 0.7 WNW 9 13 5 7 1017.4 1017.4 2.0
23/12:30am 13.8 12.3 12.0 89 1.0 WNW 11 15 6 8 1017.6 1017.6 2.0
23/12:00am 14.2 12.6 11.7 85 1.3 WSW 11 17 6 9 1017.8 1017.8 1.4
 
Date/Time
CST
Temp
°C
App
Temp
°C
Dew
Point
°C
Rel
Hum
%
Delta-T
°C
Wind Press
QNH
hPa
Press
MSL
hPa
Rain since
9am
mm
Dir  Spd
km/h
Gust
km/h
Spd
kts
Gust
kts
22/11:30pm 15.5 13.5 11.5 77 2.2 WSW 13 24 7 13 1017.5 1017.5 1.4
22/11:00pm 13.9 12.8 12.1 89 1.0 SW 9 13 5 7 1017.2 1017.2 1.4
22/10:30pm 14.6 13.9 11.9 84 1.5 NW 7 19 4 10 1017.2 1017.2 1.2
22/10:00pm 14.6 12.9 12.3 86 1.3 SSE 13 17 7 9 1016.5 1016.5 0.6
22/09:30pm 15.7 14.9 10.9 73 2.6 W 6 13 3 7 1016.6 1016.6 0.4
22/09:00pm 15.2 12.9 10.6 74 2.4 N 13 20 7 11 1015.9 1015.8 0.4
22/08:30pm 13.9 11.6 10.3 79 1.9 NNE 13 17 7 9 1015.8 1015.7 0.4
22/08:00pm 15.2 12.9 10.6 74 2.4 NNE 13 17 7 9 1015.7 1015.6 0.4
22/07:30pm 14.8 12.8 10.2 74 2.4 NNE 11 15 6 8 1015.5 1015.4 0.4
22/07:00pm 14.8 11.7 10.4 75 2.3 NW 17 19 9 10 1015.2 1015.1 0.2
22/06:30pm 14.9 10.9 10.5 75 2.3 NW 22 26 12 14 1014.8 1014.7 0.2
22/06:00pm 15.6 12.0 10.4 71 2.8 NW 20 26 11 14 1014.5 1014.4 0.2
22/05:30pm 16.2 10.7 10.7 70 2.9 NW 30 35 16 19 1014.2 1014.1 0.2
22/05:00pm 16.4 12.3 11.3 72 2.8 NW 24 32 13 17 1014.0 1013.9 0.2
22/04:30pm 18.0 14.1 9.4 57 4.5 NW 20 28 11 15 1013.3 1013.2 0.0
22/04:00pm 19.2 14.3 9.9 55 5.0 N 26 32 14 17 1012.5 1012.5 0.0
22/03:30pm 20.2 13.6 7.6 44 6.5 N 32 43 17 23 1012.4 1012.4 0.0
22/03:00pm 20.4 15.4 8.1 45 6.4 NNW 24 33 13 18 1012.2 1012.2 0.0
22/02:30pm 19.7 15.1 8.1 47 6.0 N 22 30 12 16 1012.1 1012.1 0.0
22/02:00pm 19.3 13.9 8.0 48 5.8 N 26 33 14 18 1012.9 1012.8 0.0
22/01:30pm 19.8 15.1 9.4 51 5.5 NNW 24 32 13 17 1013.0 1012.9 0.0
22/01:00pm 17.5 13.8 11.5 68 3.3 N 22 26 12 14 1013.4 1013.3 0.0
22/12:30pm 16.4 11.4 10.9 70 3.0 NNE 28 33 15 18 1013.8 1013.7 0.0
22/12:00pm 17.8 11.7 8.4 54 4.8 N 30 37 16 20 1015.3 1015.2 0.0
22/11:30am 17.4 11.3 8.3 55 4.7 N 30 46 16 25 1015.0 1014.9 0.0
22/11:00am 18.0 11.3 7.4 50 5.4 N 32 41 17 22 1015.8 1015.7 0.0

Other Formats:

Comma delimited format used in spreadsheet applications
http://www.bom.gov.au/fwo/IDS60801/IDS60801.95670.axf

JavaScript Object Notation format (JSON) in row-major order
http://www.bom.gov.au/fwo/IDS60801/IDS60801.95670.json